UR6771 UKFF-UKOH
Flight info
| Callsign | UR6771 |
|---|---|
| Flight time | 0h 24m |
| Altitude | 39000 |
| Route | TISOM B147 BANUT/N0438F390 L850 TAGAR DCT GIMUR |
| Aircraft | IL76/H-SDFGHIM1RTUWXY/LB1 |
Departure
| Time | 2026-04-25 19:33 |
|---|---|
| Airport | Simferopol International Airport (UKFF) |
Arrival
| Time | 2026-04-25 19:58 |
|---|---|
| Airport | Kherson International Airport (UKOH) |
| Time | Latitude | Longitude | Altitude | Speed | Heading |
|---|---|---|---|---|---|
| 2026-04-25 19:21 | 45.03574 | 33.97011 | 605 ft | 0 kts | 334° |
| 2026-04-25 19:30 | 45.03585 | 33.97004 | 605 ft | 7 kts | 335° |
| 2026-04-25 19:30 | 45.03684 | 33.96956 | 604 ft | 22 kts | 341° |
| 2026-04-25 19:30 | 45.03821 | 33.96907 | 603 ft | 14 kts | 355° |
| 2026-04-25 19:31 | 45.03868 | 33.96915 | 602 ft | 0 kts | 13° |
| 2026-04-25 19:31 | 45.03870 | 33.96915 | 602 ft | 0 kts | 13° |
| 2026-04-25 19:31 | 45.03901 | 33.96926 | 602 ft | 20 kts | 14° |
| 2026-04-25 19:31 | 45.04222 | 33.97038 | 598 ft | 74 kts | 14° |
| 2026-04-25 19:32 | 45.04883 | 33.97264 | 595 ft | 117 kts | 13° |
| 2026-04-25 19:32 | 45.05781 | 33.97566 | 591 ft | 146 kts | 18° |
| 2026-04-25 19:32 | 45.06800 | 33.97929 | 690 ft | 153 kts | 12° |
| 2026-04-25 19:32 | 45.07148 | 33.98045 | 719 ft | 156 kts | 13° |
| 2026-04-25 19:33 | 45.08967 | 33.98623 | 953 ft | 163 kts | 12° |
| 2026-04-25 19:33 | 45.10048 | 33.98852 | 1032 ft | 159 kts | 358° |
| 2026-04-25 19:33 | 45.11077 | 33.98318 | 1176 ft | 156 kts | 325° |
| 2026-04-25 19:33 | 45.12012 | 33.97573 | 1369 ft | 156 kts | 328° |
| 2026-04-25 19:34 | 45.12943 | 33.96740 | 1468 ft | 161 kts | 325° |
| 2026-04-25 19:34 | 45.13891 | 33.95845 | 1575 ft | 166 kts | 323° |
| 2026-04-25 19:34 | 45.14862 | 33.94894 | 1675 ft | 171 kts | 323° |
| 2026-04-25 19:34 | 45.15845 | 33.93906 | 1771 ft | 175 kts | 322° |
| 2026-04-25 19:35 | 45.16843 | 33.92889 | 1847 ft | 182 kts | 322° |
| 2026-04-25 19:35 | 45.17913 | 33.91786 | 1889 ft | 201 kts | 322° |
| 2026-04-25 19:35 | 45.19093 | 33.90562 | 2057 ft | 216 kts | 322° |
| 2026-04-25 19:35 | 45.20336 | 33.89274 | 2227 ft | 229 kts | 322° |
| 2026-04-25 19:36 | 45.21613 | 33.87940 | 2333 ft | 207 kts | 322° |
| 2026-04-25 19:36 | 45.22792 | 33.86710 | 2442 ft | 218 kts | 321° |
| 2026-04-25 19:36 | 45.24084 | 33.85352 | 2516 ft | 246 kts | 321° |
| 2026-04-25 19:36 | 45.25541 | 33.83824 | 2722 ft | 271 kts | 322° |
| 2026-04-25 19:37 | 45.27124 | 33.82165 | 2902 ft | 296 kts | 322° |
| 2026-04-25 19:37 | 45.28827 | 33.80379 | 3066 ft | 312 kts | 322° |
| 2026-04-25 19:37 | 45.30576 | 33.78547 | 3207 ft | 314 kts | 322° |
| 2026-04-25 19:37 | 45.32330 | 33.76702 | 3414 ft | 314 kts | 321° |
| 2026-04-25 19:38 | 45.34103 | 33.74838 | 3620 ft | 315 kts | 321° |
| 2026-04-25 19:38 | 45.35852 | 33.72995 | 3859 ft | 315 kts | 321° |
| 2026-04-25 19:38 | 45.37604 | 33.71148 | 4145 ft | 316 kts | 321° |
| 2026-04-25 19:38 | 45.39374 | 33.69284 | 4434 ft | 317 kts | 321° |
| 2026-04-25 19:39 | 45.41149 | 33.67411 | 4723 ft | 318 kts | 321° |
| 2026-04-25 19:39 | 45.42932 | 33.65529 | 5008 ft | 319 kts | 321° |
| 2026-04-25 19:39 | 45.44701 | 33.63657 | 5271 ft | 319 kts | 321° |
| 2026-04-25 19:39 | 45.46489 | 33.61768 | 5535 ft | 320 kts | 321° |
| 2026-04-25 19:40 | 45.48259 | 33.59896 | 5794 ft | 321 kts | 321° |
| 2026-04-25 19:40 | 45.50048 | 33.58000 | 6057 ft | 321 kts | 321° |
| 2026-04-25 19:40 | 45.51856 | 33.56087 | 6336 ft | 322 kts | 321° |
| 2026-04-25 19:40 | 45.53637 | 33.54199 | 6608 ft | 322 kts | 320° |
| 2026-04-25 19:41 | 45.55443 | 33.52280 | 6885 ft | 323 kts | 321° |
| 2026-04-25 19:41 | 45.57259 | 33.50353 | 7188 ft | 323 kts | 321° |
| 2026-04-25 19:41 | 45.59056 | 33.48441 | 7513 ft | 325 kts | 321° |
| 2026-04-25 19:41 | 45.59661 | 33.47797 | 7620 ft | 326 kts | 321° |
| 2026-04-25 19:42 | 45.62697 | 33.44558 | 8159 ft | 328 kts | 321° |
| 2026-04-25 19:42 | 45.64523 | 33.42612 | 8479 ft | 330 kts | 320° |
| 2026-04-25 19:42 | 45.66365 | 33.40646 | 8802 ft | 331 kts | 320° |
| 2026-04-25 19:42 | 45.68219 | 33.38663 | 9123 ft | 332 kts | 321° |
| 2026-04-25 19:43 | 45.70055 | 33.36699 | 9440 ft | 334 kts | 320° |
| 2026-04-25 19:43 | 45.71900 | 33.34723 | 9756 ft | 335 kts | 320° |
| 2026-04-25 19:43 | 45.73777 | 33.32714 | 10084 ft | 336 kts | 320° |
| 2026-04-25 19:43 | 45.75646 | 33.30711 | 10407 ft | 337 kts | 320° |
| 2026-04-25 19:44 | 45.77543 | 33.28675 | 10733 ft | 339 kts | 320° |
| 2026-04-25 19:44 | 45.79419 | 33.26662 | 11054 ft | 340 kts | 320° |
| 2026-04-25 19:44 | 45.81308 | 33.24632 | 11377 ft | 342 kts | 320° |
| 2026-04-25 19:44 | 45.83221 | 33.22574 | 11702 ft | 343 kts | 320° |
| 2026-04-25 19:45 | 45.85126 | 33.20526 | 12023 ft | 344 kts | 319° |
| 2026-04-25 19:45 | 45.87044 | 33.18458 | 12345 ft | 346 kts | 319° |
| 2026-04-25 19:45 | 45.88956 | 33.16396 | 12665 ft | 347 kts | 319° |
| 2026-04-25 19:45 | 45.90898 | 33.14299 | 12948 ft | 350 kts | 319° |
| 2026-04-25 19:46 | 45.92846 | 33.12193 | 12868 ft | 349 kts | 319° |
| 2026-04-25 19:46 | 45.94777 | 33.10108 | 12871 ft | 347 kts | 319° |
| 2026-04-25 19:46 | 45.96685 | 33.08040 | 12870 ft | 346 kts | 319° |
| 2026-04-25 19:46 | 45.98608 | 33.05954 | 12866 ft | 346 kts | 319° |
| 2026-04-25 19:47 | 46.00525 | 33.03877 | 12764 ft | 345 kts | 319° |
| 2026-04-25 19:47 | 46.02438 | 33.01802 | 12674 ft | 344 kts | 319° |
| 2026-04-25 19:47 | 46.04327 | 32.99748 | 12542 ft | 343 kts | 319° |
| 2026-04-25 19:47 | 46.06231 | 32.97678 | 12400 ft | 342 kts | 319° |
| 2026-04-25 19:48 | 46.08125 | 32.95615 | 12256 ft | 341 kts | 319° |
| 2026-04-25 19:48 | 46.09996 | 32.93577 | 12113 ft | 340 kts | 319° |
| 2026-04-25 19:48 | 46.11888 | 32.91515 | 11961 ft | 339 kts | 319° |
| 2026-04-25 19:48 | 46.13948 | 32.89778 | 11806 ft | 343 kts | 331° |
| 2026-04-25 19:49 | 46.16072 | 32.88251 | 11665 ft | 342 kts | 329° |
| 2026-04-25 19:49 | 46.16762 | 32.87754 | 11616 ft | 342 kts | 330° |
| 2026-04-25 19:49 | 46.20332 | 32.85197 | 11363 ft | 340 kts | 329° |
| 2026-04-25 19:49 | 46.22436 | 32.83679 | 11213 ft | 339 kts | 329° |
| 2026-04-25 19:50 | 46.26633 | 32.80647 | 10912 ft | 338 kts | 329° |
| 2026-04-25 19:50 | 46.28733 | 32.79127 | 10761 ft | 337 kts | 329° |
| 2026-04-25 19:50 | 46.30832 | 32.77609 | 10609 ft | 336 kts | 329° |
| 2026-04-25 19:51 | 46.32932 | 32.76085 | 10456 ft | 335 kts | 329° |
| 2026-04-25 19:51 | 46.34989 | 32.74592 | 10307 ft | 334 kts | 330° |
| 2026-04-25 19:51 | 46.37073 | 32.73078 | 10154 ft | 333 kts | 330° |
| 2026-04-25 19:51 | 46.39142 | 32.71576 | 10003 ft | 333 kts | 330° |
| 2026-04-25 19:52 | 46.41194 | 32.70081 | 9682 ft | 332 kts | 330° |
| 2026-04-25 19:52 | 46.43257 | 32.68583 | 9301 ft | 327 kts | 330° |
| 2026-04-25 19:52 | 46.45262 | 32.67128 | 8916 ft | 318 kts | 330° |
| 2026-04-25 19:52 | 46.47208 | 32.65701 | 8523 ft | 310 kts | 330° |
| 2026-04-25 19:53 | 46.49108 | 32.64317 | 8137 ft | 303 kts | 330° |
| 2026-04-25 19:53 | 46.50938 | 32.62852 | 7725 ft | 293 kts | 318° |
| 2026-04-25 19:53 | 46.52152 | 32.60602 | 7365 ft | 280 kts | 300° |
| 2026-04-25 19:53 | 46.53113 | 32.58222 | 6943 ft | 274 kts | 296° |
| 2026-04-25 19:54 | 46.53936 | 32.55771 | 6144 ft | 263 kts | 294° |
| 2026-04-25 19:54 | 46.54669 | 32.53445 | 5480 ft | 244 kts | 292° |
| 2026-04-25 19:54 | 46.55319 | 32.51289 | 4938 ft | 228 kts | 292° |
| 2026-04-25 19:54 | 46.55530 | 32.50587 | 4760 ft | 224 kts | 292° |
| 2026-04-25 19:55 | 46.56503 | 32.47266 | 3877 ft | 208 kts | 292° |
| 2026-04-25 19:55 | 46.57049 | 32.45379 | 3360 ft | 203 kts | 291° |
| 2026-04-25 19:55 | 46.57585 | 32.43550 | 2809 ft | 189 kts | 292° |
| 2026-04-25 19:55 | 46.58421 | 32.42122 | 1925 ft | 199 kts | 332° |
| 2026-04-25 19:56 | 46.59791 | 32.41964 | 1012 ft | 207 kts | 18° |
| 2026-04-25 19:56 | 46.60886 | 32.43066 | 627 ft | 187 kts | 52° |
| 2026-04-25 19:56 | 46.61657 | 32.44567 | 717 ft | 175 kts | 48° |
| 2026-04-25 19:56 | 46.62451 | 32.45683 | 619 ft | 155 kts | 36° |
| 2026-04-25 19:57 | 46.63337 | 32.46618 | 514 ft | 155 kts | 34° |
| 2026-04-25 19:57 | 46.64234 | 32.47443 | 430 ft | 151 kts | 31° |
| 2026-04-25 19:57 | 46.65132 | 32.48278 | 322 ft | 149 kts | 34° |
| 2026-04-25 19:57 | 46.65991 | 32.49096 | 224 ft | 149 kts | 34° |
| 2026-04-25 19:58 | 46.66841 | 32.49913 | 155 ft | 137 kts | 34° |
| 2026-04-25 19:58 | 46.67495 | 32.50531 | 152 ft | 62 kts | 38° |
| 2026-04-25 19:58 | 46.67814 | 32.50824 | 149 ft | 44 kts | 34° |
| 2026-04-25 19:58 | 46.68036 | 32.51036 | 148 ft | 29 kts | 34° |
| 2026-04-25 19:59 | 46.68135 | 32.51172 | 146 ft | 11 kts | 89° |
| 2026-04-25 19:59 | 46.68119 | 32.51239 | 146 ft | 3 kts | 121° |
| 2026-04-25 19:59 | 46.68105 | 32.51270 | 146 ft | 4 kts | 124° |
| 2026-04-25 19:59 | 46.68077 | 32.51333 | 147 ft | 10 kts | 123° |
| 2026-04-25 20:00 | 46.68047 | 32.51384 | 148 ft | 4 kts | 166° |
| 2026-04-25 20:00 | 46.68035 | 32.51384 | 148 ft | 5 kts | 193° |
| 2026-04-25 20:00 | 46.67926 | 32.51287 | 149 ft | 18 kts | 213° |
| 2026-04-25 20:00 | 46.67801 | 32.51170 | 149 ft | 22 kts | 213° |
| 2026-04-25 20:01 | 46.67523 | 32.50908 | 151 ft | 24 kts | 214° |
| 2026-04-25 20:01 | 46.67441 | 32.50831 | 152 ft | 11 kts | 213° |
| 2026-04-25 20:01 | 46.67370 | 32.50767 | 152 ft | 10 kts | 209° |
| 2026-04-25 20:02 | 46.67318 | 32.50731 | 152 ft | 4 kts | 203° |
| 2026-04-25 20:02 | 46.67299 | 32.50721 | 153 ft | 5 kts | 208° |
| 2026-04-25 20:02 | 46.67253 | 32.50677 | 154 ft | 7 kts | 212° |
| 2026-04-25 20:02 | 46.67226 | 32.50653 | 154 ft | 0 kts | 213° |
| 2026-04-25 20:05 | 46.67394 | 32.50796 | 151 ft | 0 kts | 213° |
| 2026-04-25 20:05 | 46.67236 | 32.50655 | 154 ft | 0 kts | 213° |
| 2026-04-25 20:06 | 45.03433 | 33.97300 | 609 ft | 0 kts | 14° |
| 2026-04-25 20:13 | 45.03442 | 33.97303 | 609 ft | 5 kts | 9° |
| 2026-04-25 20:13 | 45.03461 | 33.97300 | 610 ft | 5 kts | 340° |
| 2026-04-25 20:13 | 45.03493 | 33.97271 | 610 ft | 15 kts | 311° |
| 2026-04-25 20:14 | 45.03502 | 33.97255 | 610 ft | 0 kts | 302° |
| 2026-04-25 20:14 | 45.03513 | 33.97230 | 609 ft | 7 kts | 301° |
| 2026-04-25 20:14 | 45.03540 | 33.97123 | 607 ft | 16 kts | 287° |
| 2026-04-25 20:14 | 45.03616 | 33.96989 | 605 ft | 18 kts | 338° |
| 2026-04-25 20:15 | 45.03710 | 33.96925 | 604 ft | 12 kts | 323° |
| 2026-04-25 20:15 | 45.03769 | 33.96888 | 603 ft | 4 kts | 1° |
| 2026-04-25 20:15 | 45.03785 | 33.96888 | 603 ft | 2 kts | 4° |
| 2026-04-25 20:15 | 45.03967 | 33.96950 | 601 ft | 71 kts | 14° |
| 2026-04-25 20:16 | 45.04738 | 33.97208 | 619 ft | 151 kts | 15° |
| 2026-04-25 20:16 | 45.05867 | 33.97614 | 1002 ft | 183 kts | 16° |
| 2026-04-25 20:16 | 45.07236 | 33.97548 | 1267 ft | 219 kts | 329° |
| 2026-04-25 20:16 | 45.07874 | 33.95464 | 1246 ft | 270 kts | 260° |
| 2026-04-25 20:17 | 45.06875 | 33.93032 | 1619 ft | 311 kts | 219° |
| 2026-04-25 20:17 | 45.04762 | 33.92304 | 1674 ft | 348 kts | 168° |
| 2026-04-25 20:17 | 45.02248 | 33.92484 | 1836 ft | 380 kts | 185° |
| 2026-04-25 20:17 | 44.99661 | 33.92999 | 2280 ft | 387 kts | 137° |
| 2026-04-25 20:18 | 45.00465 | 33.95615 | 1780 ft | 407 kts | 14° |
| 2026-04-25 20:18 | 45.03168 | 33.96668 | 677 ft | 388 kts | 14° |
| 2026-04-25 20:18 | 45.04853 | 33.97236 | 610 ft | 355 kts | 13° |
| 2026-04-25 20:18 | 45.07645 | 33.97619 | 1694 ft | 271 kts | 304° |
| 2026-04-25 20:19 | 45.07206 | 33.95217 | 1818 ft | 308 kts | 224° |
| 2026-04-25 20:19 | 45.07071 | 33.95043 | 1826 ft | 311 kts | 217° |
| 2026-04-25 20:26 | 45.06122 | 33.94177 | 2336 ft | 318 kts | 203° |
| 2026-04-25 20:26 | 45.03882 | 33.93227 | 2417 ft | 362 kts | 192° |
| 2026-04-25 20:26 | 45.01219 | 33.92416 | 1911 ft | 400 kts | 192° |
| 2026-04-25 20:26 | 44.98676 | 33.91547 | 1764 ft | 345 kts | 195° |
| 2026-04-25 20:27 | 44.96615 | 33.90787 | 2437 ft | 283 kts | 192° |
| 2026-04-25 20:27 | 44.94969 | 33.91269 | 2910 ft | 237 kts | 137° |
| 2026-04-25 20:27 | 44.94466 | 33.93404 | 2485 ft | 237 kts | 73° |
| 2026-04-25 20:27 | 44.94990 | 33.94237 | 2040 ft | 243 kts | 17° |
| 2026-04-25 20:28 | 44.96664 | 33.94381 | 1739 ft | 242 kts | 6° |
| 2026-04-25 20:28 | 44.97686 | 33.94797 | 1977 ft | 214 kts | 18° |
| 2026-04-25 20:28 | 44.99268 | 33.95408 | 1688 ft | 144 kts | 11° |
| 2026-04-25 20:28 | 45.00187 | 33.95717 | 1370 ft | 135 kts | 10° |
| 2026-04-25 20:29 | 45.01050 | 33.95968 | 1396 ft | 141 kts | 11° |
| 2026-04-25 20:29 | 45.01576 | 33.96137 | 1284 ft | 129 kts | 12° |
| 2026-04-25 20:29 | 45.02432 | 33.96419 | 1040 ft | 127 kts | 13° |
| 2026-04-25 20:30 | 45.03296 | 33.96710 | 717 ft | 129 kts | 14° |
| 2026-04-25 20:30 | 45.03867 | 33.96909 | 603 ft | 118 kts | 14° |
| 2026-04-25 20:30 | 45.04939 | 33.97264 | 678 ft | 145 kts | 15° |
| 2026-04-25 20:30 | 45.06101 | 33.97635 | 829 ft | 197 kts | 6° |
| 2026-04-25 20:31 | 45.07357 | 33.96905 | 1147 ft | 209 kts | 297° |
| 2026-04-25 20:31 | 45.07395 | 33.95573 | 1029 ft | 212 kts | 245° |
| 2026-04-25 20:31 | 45.06265 | 33.94300 | 1030 ft | 217 kts | 194° |
| 2026-04-25 20:31 | 45.04736 | 33.94213 | 1086 ft | 227 kts | 175° |
| 2026-04-25 20:32 | 45.02578 | 33.94371 | 1057 ft | 241 kts | 192° |
| 2026-04-25 20:32 | 45.01022 | 33.93449 | 1012 ft | 229 kts | 187° |
| 2026-04-25 20:32 | 44.99855 | 33.94555 | 857 ft | 205 kts | 107° |
| 2026-04-25 20:32 | 45.00328 | 33.96124 | 747 ft | 182 kts | 35° |
| 2026-04-25 20:33 | 45.01463 | 33.96377 | 840 ft | 154 kts | 2° |
| 2026-04-25 20:33 | 45.02430 | 33.96510 | 794 ft | 128 kts | 10° |
| 2026-04-25 20:33 | 45.03251 | 33.96719 | 647 ft | 115 kts | 15° |
| 2026-04-25 20:33 | 45.03510 | 33.96800 | 614 ft | 113 kts | 16° |
| 2026-04-25 20:34 | 45.04381 | 33.97093 | 597 ft | 57 kts | 19° |